SBRP

Details ICAO SBRP (RAO)
Name LEITE LOPES
Region Brazil
Timezone America/Sao_Paulo (UTC-3.0)
Plans Departing 94
Arriving 64
Stats Elevation 1,802 ft / 549 m (AMSL)
Location -21.134166° -47.774189°
Runways 1
Magnetic Variation 21.256° W
Sunrise 2018-05-21 09:37:59 UTC / 2018-05-21 06:37:59 Local
Sunset 2018-05-21 20:40:16 UTC / 2018-05-21 17:40:16 Local
Advertisement - Login to hide

Runways

ID Width Length Bearing (true) Bearing (mag) Surface Threshold Offset Overrun Length
18 115 ft / 35 m 6,918 ft / 2,109 m 163.40° 184.66° Asphalt 657 ft / 200 m 0 ft / 0 m
36 115 ft / 35 m 6,918 ft / 2,109 m 343.40° 4.66° Asphalt 328 ft / 100 m 0 ft / 0 m

Map

Weather


0- 5 10 15 20 25 30 35+ Temperature / ° C

Clouds and Precipitation
Forecast for 2018-05-21 18:00 UTC. Updated 22 minutes ago

Ground ~20,000 ft ~40,000 ft Winds

METAR

SBRP 211500Z 08003KT CAVOK 20/08 Q1019

TAF

TAF SBRP 211005Z 2112/2212 00000KT CAVOK TX23/2117Z TN08/2209Z BECMG 2113/2115 33005KT BECMG 2118/2120 16005KT BECMG 2200/2202 10003KT RMK PGN

Frequencies

Recorded 127.42 MHz ATIS
Tower 118.00 MHz RIBEIRAO TWR
Tower 118.00 MHz RIBEIRAO RDO
Approach 119.55 MHz RIBEIRAO APP
Warning: Do not use this data for real-world aviation or navigation. No guarantee of current accuracy is given.